Time,TemperatureF,DewpointF,PressureIn,WindDirection,WindDirectionDegrees,WindSpeedMPH,WindSpeedGustMPH,Humidity,HourlyPrecipIn,Conditions,Clouds,dailyrainin,SoftwareType,DateUTC
2013-08-21 00:01:00,72.0,65.1,29.21,SE,124,0.0,0.0,79,0.00,,SKC,0.00,VWS V14.00,2013-08-21 04:01:00,
2013-08-21 00:06:00,72.0,65.1,29.21,SE,124,0.0,0.0,79,0.00,,SKC,0.00,VWS V14.00,2013-08-21 04:06:00,
2013-08-21 00:10:00,71.8,64.9,29.21,SE,124,0.0,0.0,79,0.00,,SKC,0.00,VWS V14.00,2013-08-21 04:10:00,
2013-08-21 00:11:00,71.8,64.9,29.21,SE,124,0.0,0.0,79,0.00,,SKC,0.00,VWS V14.00,2013-08-21 04:11:00,
2013-08-21 00:16:00,71.8,64.9,29.21,SE,124,0.0,0.0,79,0.00,,SKC,0.00,VWS V14.00,2013-08-21 04:16:00,
2013-08-21 00:21:00,71.8,65.3,29.21,SE,124,0.0,0.0,80,0.00,,SKC,0.00,VWS V14.00,2013-08-21 04:21:00,
2013-08-21 00:26:00,71.6,65.1,29.21,SE,124,0.0,0.0,80,0.00,,SKC,0.00,VWS V14.00,2013-08-21 04:26:00,
2013-08-21 00:31:00,71.6,65.1,29.21,SE,124,0.0,0.0,80,0.00,,SKC,0.00,VWS V14.00,2013-08-21 04:31:00,
2013-08-21 00:36:00,71.6,65.1,29.21,SE,124,0.0,0.0,80,0.00,,SKC,0.00,VWS V14.00,2013-08-21 04:36:00,
2013-08-21 00:41:00,71.4,64.9,29.21,SE,124,0.0,0.0,80,0.00,,SKC,0.00,VWS V14.00,2013-08-21 04:41:00,
2013-08-21 00:46:00,71.4,64.9,29.21,SE,124,0.0,0.0,80,0.00,,SKC,0.00,VWS V14.00,2013-08-21 04:46:00,
2013-08-21 00:51:00,71.4,64.9,29.21,SE,124,0.0,0.0,80,0.00,,SKC,0.00,VWS V14.00,2013-08-21 04:51:00,
2013-08-21 00:56:00,71.2,64.8,29.21,SE,124,0.0,0.0,80,0.00,,SKC,0.00,VWS V14.00,2013-08-21 04:56:00,
2013-08-21 01:01:00,71.2,64.8,29.21,SE,124,0.0,0.0,80,0.00,,SKC,0.00,VWS V14.00,2013-08-21 05:01:00,
2013-08-21 01:06:00,71.2,65.1,29.21,SE,124,0.0,0.0,81,0.00,,SKC,0.00,VWS V14.00,2013-08-21 05:06:00,
2013-08-21 01:11:00,71.1,64.9,29.21,SE,124,0.0,0.0,81,0.00,,SKC,0.00,VWS V14.00,2013-08-21 05:11:00,
2013-08-21 01:16:00,71.1,64.9,29.21,SE,124,0.0,0.0,81,0.00,,SKC,0.00,VWS V14.00,2013-08-21 05:16:00,
2013-08-21 01:21:00,71.1,64.9,29.21,SE,124,0.0,0.0,81,0.00,,SKC,0.00,VWS V14.00,2013-08-21 05:21:00,
2013-08-21 01:26:00,70.9,64.8,29.21,SE,124,0.0,0.0,81,0.00,,SKC,0.00,VWS V14.00,2013-08-21 05:26:00,
2013-08-21 01:31:00,70.9,64.8,29.21,SE,124,0.0,0.0,81,0.00,,SKC,0.00,VWS V14.00,2013-08-21 05:31:00,
2013-08-21 01:36:00,70.9,64.8,29.21,SE,124,0.0,0.0,81,0.00,,SKC,0.00,VWS V14.00,2013-08-21 05:36:00,
2013-08-21 01:41:00,70.7,64.6,29.21,SE,124,0.0,0.0,81,0.00,,SKC,0.00,VWS V14.00,2013-08-21 05:41:00,
2013-08-21 01:46:00,70.7,64.6,29.21,SE,124,0.0,0.0,81,0.00,,SKC,0.00,VWS V14.00,2013-08-21 05:46:00,
2013-08-21 01:51:00,70.5,64.4,29.21,SE,124,0.0,0.0,81,0.00,,SKC,0.00,VWS V14.00,2013-08-21 05:51:00,
2013-08-21 01:56:00,70.5,64.4,29.21,SE,124,0.0,0.0,81,0.00,,SKC,0.00,VWS V14.00,2013-08-21 05:56:00,
2013-08-21 02:01:00,70.5,64.4,29.21,SE,124,0.0,0.0,81,0.00,,SKC,0.00,VWS V14.00,2013-08-21 06:01:00,
2013-08-21 02:06:00,70.3,64.2,29.21,SE,124,0.0,0.0,81,0.00,,SKC,0.00,VWS V14.00,2013-08-21 06:06:00,
2013-08-21 02:11:00,70.3,64.6,29.21,SE,124,0.0,0.0,82,0.00,,SKC,0.00,VWS V14.00,2013-08-21 06:11:00,
2013-08-21 02:16:00,70.3,64.6,29.21,SE,124,0.0,0.0,82,0.00,,SKC,0.00,VWS V14.00,2013-08-21 06:16:00,
2013-08-21 02:21:00,70.3,64.6,29.21,SE,124,0.0,0.0,82,0.00,,SKC,0.00,VWS V14.00,2013-08-21 06:21:00,
2013-08-21 02:26:00,70.3,64.6,29.21,SE,124,0.0,0.0,82,0.00,,SKC,0.00,VWS V14.00,2013-08-21 06:26:00,
2013-08-21 02:31:00,70.3,64.6,29.21,SE,124,0.0,0.0,82,0.00,,SKC,0.00,VWS V14.00,2013-08-21 06:31:00,
2013-08-21 02:36:00,70.3,64.6,29.21,SE,124,0.0,0.0,82,0.00,,SKC,0.00,VWS V14.00,2013-08-21 06:36:00,
2013-08-21 02:41:00,70.3,64.6,29.21,SE,124,0.0,0.0,82,0.00,,SKC,0.00,VWS V14.00,2013-08-21 06:41:00,
2013-08-21 02:46:00,70.3,64.6,29.21,SE,124,0.0,0.0,82,0.00,,SKC,0.00,VWS V14.00,2013-08-21 06:46:00,
2013-08-21 02:51:00,70.3,64.6,29.21,SE,124,0.0,0.0,82,0.00,,SKC,0.00,VWS V14.00,2013-08-21 06:51:00,
2013-08-21 02:56:00,70.3,64.9,29.21,SE,124,0.0,0.0,83,0.00,,SKC,0.00,VWS V14.00,2013-08-21 06:56:00,
2013-08-21 03:01:00,70.3,64.9,29.21,SE,124,0.0,0.0,83,0.00,,SKC,0.00,VWS V14.00,2013-08-21 07:01:00,
2013-08-21 03:06:00,70.3,64.9,29.21,SE,124,0.0,0.0,83,0.00,,SKC,0.00,VWS V14.00,2013-08-21 07:06:00,
2013-08-21 03:11:00,70.3,64.9,29.21,SE,124,0.0,0.0,83,0.00,,SKC,0.00,VWS V14.00,2013-08-21 07:11:00,
2013-08-21 03:16:00,70.5,65.1,29.21,SE,124,0.0,0.0,83,0.00,,SKC,0.00,VWS V14.00,2013-08-21 07:16:00,
2013-08-21 03:22:00,70.5,65.1,29.21,SE,124,0.0,0.0,83,0.00,,SKC,0.00,VWS V14.00,2013-08-21 07:22:00,
2013-08-21 03:27:00,70.5,65.1,29.21,SE,124,0.0,0.0,83,0.00,,SKC,0.00,VWS V14.00,2013-08-21 07:27:00,
2013-08-21 03:32:00,70.3,64.9,29.21,SE,124,0.0,0.0,83,0.00,,SKC,0.00,VWS V14.00,2013-08-21 07:32:00,
2013-08-21 03:37:00,70.5,65.1,29.21,SE,124,0.0,0.0,83,0.00,,SKC,0.00,VWS V14.00,2013-08-21 07:37:00,
2013-08-21 03:42:00,70.5,65.1,29.21,SE,124,0.0,0.0,83,0.00,,SKC,0.00,VWS V14.00,2013-08-21 07:42:00,
2013-08-21 03:47:00,70.5,65.5,29.21,SE,124,0.0,0.0,84,0.00,,SKC,0.00,VWS V14.00,2013-08-21 07:47:00,
2013-08-21 03:52:00,70.5,65.5,29.21,SE,124,0.0,0.0,84,0.00,,SKC,0.00,VWS V14.00,2013-08-21 07:52:00,
2013-08-21 03:57:00,70.5,65.5,29.21,SE,124,0.0,0.0,84,0.00,,SKC,0.00,VWS V14.00,2013-08-21 07:57:00,
2013-08-21 04:02:00,70.5,65.5,29.21,SE,124,0.0,0.0,84,0.00,,SKC,0.00,VWS V14.00,2013-08-21 08:02:00,
2013-08-21 04:07:00,70.5,65.5,29.21,SE,124,0.0,0.0,84,0.00,,SKC,0.00,VWS V14.00,2013-08-21 08:07:00,
2013-08-21 04:12:00,70.7,65.6,29.21,SE,124,0.0,0.0,84,0.00,,SKC,0.00,VWS V14.00,2013-08-21 08:12:00,
2013-08-21 04:17:00,70.7,65.6,29.21,SE,124,0.0,0.0,84,0.00,,SKC,0.00,VWS V14.00,2013-08-21 08:17:00,
2013-08-21 04:22:00,70.7,65.6,29.21,SE,124,0.0,0.0,84,0.00,,SKC,0.00,VWS V14.00,2013-08-21 08:22:00,
2013-08-21 04:27:00,70.7,65.6,29.21,SE,124,0.0,0.0,84,0.00,,SKC,0.00,VWS V14.00,2013-08-21 08:27:00,
2013-08-21 04:32:00,70.7,65.6,29.21,SE,124,0.0,0.0,84,0.00,,SKC,0.00,VWS V14.00,2013-08-21 08:32:00,
2013-08-21 04:37:00,70.5,65.5,29.21,SE,124,0.0,0.0,84,0.00,,SKC,0.00,VWS V14.00,2013-08-21 08:37:00,
2013-08-21 04:42:00,70.5,65.5,29.21,SE,124,0.0,0.0,84,0.00,,SKC,0.00,VWS V14.00,2013-08-21 08:42:00,
2013-08-21 04:47:00,70.5,65.8,29.21,SE,124,0.0,0.0,85,0.00,,SKC,0.00,VWS V14.00,2013-08-21 08:47:00,
2013-08-21 04:52:00,70.5,65.8,29.18,SE,124,0.0,0.0,85,0.00,,SKC,0.00,VWS V14.00,2013-08-21 08:52:00,
2013-08-21 04:57:00,70.3,65.6,29.18,SE,124,0.0,0.0,85,0.00,,SKC,0.00,VWS V14.00,2013-08-21 08:57:00,
2013-08-21 05:02:00,70.3,65.6,29.18,SE,124,0.0,0.0,85,0.00,,SKC,0.00,VWS V14.00,2013-08-21 09:02:00,
2013-08-21 05:07:00,70.3,65.6,29.21,SE,124,0.0,0.0,85,0.00,,SKC,0.00,VWS V14.00,2013-08-21 09:07:00,
2013-08-21 05:12:00,70.3,65.6,29.21,SE,124,0.0,0.0,85,0.00,,SKC,0.00,VWS V14.00,2013-08-21 09:12:00,
2013-08-21 05:17:00,70.3,65.6,29.21,SE,124,0.0,0.0,85,0.00,,SKC,0.00,VWS V14.00,2013-08-21 09:17:00,
2013-08-21 05:22:00,70.3,65.6,29.21,SE,124,0.0,0.0,85,0.00,,SKC,0.00,VWS V14.00,2013-08-21 09:22:00,
2013-08-21 05:27:00,70.3,65.6,29.21,SE,124,0.0,0.0,85,0.00,,SKC,0.00,VWS V14.00,2013-08-21 09:27:00,
2013-08-21 05:32:00,70.3,65.6,29.21,SE,124,0.0,0.0,85,0.00,,SKC,0.00,VWS V14.00,2013-08-21 09:32:00,
2013-08-21 05:37:00,70.3,65.6,29.21,SE,124,0.0,0.0,85,0.00,,SKC,0.00,VWS V14.00,2013-08-21 09:37:00,
2013-08-21 05:42:00,70.3,65.6,29.21,SE,124,0.0,0.0,85,0.00,,SKC,0.00,VWS V14.00,2013-08-21 09:42:00,
2013-08-21 05:47:00,70.2,65.4,29.21,SE,124,0.0,0.0,85,0.00,,SKC,0.00,VWS V14.00,2013-08-21 09:47:00,
2013-08-21 05:52:00,70.2,65.4,29.21,SE,124,0.0,0.0,85,0.00,,SKC,0.00,VWS V14.00,2013-08-21 09:52:00,
2013-08-21 05:57:00,70.2,65.4,29.21,SE,124,0.0,0.0,85,0.00,,SKC,0.00,VWS V14.00,2013-08-21 09:57:00,
2013-08-21 06:02:00,70.2,65.4,29.21,SE,124,0.0,0.0,85,0.00,,SKC,0.00,VWS V14.00,2013-08-21 10:02:00,
2013-08-21 06:07:00,70.2,65.4,29.21,SE,124,0.0,0.0,85,0.00,,SKC,0.00,VWS V14.00,2013-08-21 10:07:00,
2013-08-21 06:12:00,70.2,65.4,29.21,SE,124,0.0,0.0,85,0.00,,SKC,0.00,VWS V14.00,2013-08-21 10:12:00,
2013-08-21 06:17:00,70.2,65.8,29.21,SE,124,0.0,0.0,86,0.00,,SKC,0.00,VWS V14.00,2013-08-21 10:17:00,
2013-08-21 06:22:00,70.3,66.0,29.21,SE,124,0.0,0.0,86,0.00,,SKC,0.00,VWS V14.00,2013-08-21 10:22:00,
2013-08-21 06:27:00,70.3,66.0,29.21,SE,124,0.0,0.0,86,0.00,,SKC,0.00,VWS V14.00,2013-08-21 10:27:00,
2013-08-21 06:32:00,70.3,66.0,29.21,SE,124,0.0,0.0,86,0.00,,SKC,0.00,VWS V14.00,2013-08-21 10:32:00,
2013-08-21 06:37:00,70.3,66.0,29.21,SE,124,0.0,0.0,86,0.00,,SKC,0.00,VWS V14.00,2013-08-21 10:37:00,
2013-08-21 06:42:00,70.3,66.0,29.21,SE,124,0.0,0.0,86,0.00,,SKC,0.00,VWS V14.00,2013-08-21 10:42:00,
2013-08-21 06:47:00,70.3,66.0,29.21,SE,124,0.0,0.0,86,0.00,,SKC,0.00,VWS V14.00,2013-08-21 10:47:00,
2013-08-21 06:52:00,70.3,66.0,29.23,SE,124,0.0,0.0,86,0.00,,SKC,0.00,VWS V14.00,2013-08-21 10:52:00,
2013-08-21 06:57:00,70.3,66.0,29.23,SE,124,0.0,0.0,86,0.00,,SKC,0.00,VWS V14.00,2013-08-21 10:57:00,
2013-08-21 07:02:00,70.3,66.0,29.23,SE,124,0.0,0.0,86,0.00,,SKC,0.00,VWS V14.00,2013-08-21 11:02:00,
2013-08-21 07:07:00,70.3,66.0,29.23,SE,124,0.0,0.0,86,0.00,,SKC,0.00,VWS V14.00,2013-08-21 11:07:00,
2013-08-21 07:12:00,70.3,66.0,29.23,SE,124,0.0,0.0,86,0.00,,SKC,0.00,VWS V14.00,2013-08-21 11:12:00,
2013-08-21 07:17:00,70.2,65.8,29.23,SE,124,0.0,0.0,86,0.00,,SKC,0.00,VWS V14.00,2013-08-21 11:17:00,
2013-08-21 07:22:00,70.2,65.8,29.23,SE,124,0.0,0.0,86,0.00,,SKC,0.00,VWS V14.00,2013-08-21 11:22:00,
2013-08-21 07:27:00,70.2,66.1,29.23,SE,124,0.0,0.0,87,0.00,,SKC,0.00,VWS V14.00,2013-08-21 11:27:00,
2013-08-21 07:32:00,70.2,66.1,29.23,SE,124,0.0,0.0,87,0.00,,SKC,0.00,VWS V14.00,2013-08-21 11:32:00,
2013-08-21 07:37:00,70.2,66.1,29.23,SE,124,0.0,0.0,87,0.00,,SKC,0.00,VWS V14.00,2013-08-21 11:37:00,
2013-08-21 07:42:00,70.2,66.1,29.23,SE,124,0.0,0.0,87,0.00,,SKC,0.00,VWS V14.00,2013-08-21 11:42:00,
2013-08-21 07:47:00,70.2,66.1,29.23,SE,124,0.0,0.0,87,0.00,,SKC,0.00,VWS V14.00,2013-08-21 11:47:00,
2013-08-21 07:52:00,70.2,66.1,29.23,SE,124,0.0,0.0,87,0.00,,SKC,0.00,VWS V14.00,2013-08-21 11:52:00,
2013-08-21 07:57:00,70.2,66.1,29.23,SE,124,0.0,0.0,87,0.00,,SKC,0.00,VWS V14.00,2013-08-21 11:57:00,
2013-08-21 08:02:00,70.2,66.1,29.23,SE,124,0.0,0.0,87,0.00,,SKC,0.00,VWS V14.00,2013-08-21 12:02:00,
2013-08-21 08:07:00,70.3,66.3,29.23,SE,124,0.0,0.0,87,0.00,,SKC,0.00,VWS V14.00,2013-08-21 12:07:00,
2013-08-21 08:12:00,70.3,66.3,29.23,SE,124,0.0,0.0,87,0.00,,SKC,0.00,VWS V14.00,2013-08-21 12:12:00,
2013-08-21 08:17:00,70.5,66.5,29.23,SE,124,0.0,0.0,87,0.00,,SKC,0.00,VWS V14.00,2013-08-21 12:17:00,
2013-08-21 08:22:00,70.7,66.7,29.23,SE,124,0.0,0.0,87,0.00,,SKC,0.00,VWS V14.00,2013-08-21 12:22:00,
2013-08-21 08:27:00,70.7,66.7,29.23,SE,124,0.0,0.0,87,0.00,,SKC,0.00,VWS V14.00,2013-08-21 12:27:00,
2013-08-21 08:32:00,70.9,66.8,29.23,SE,124,0.0,0.0,87,0.00,,SKC,0.00,VWS V14.00,2013-08-21 12:32:00,
2013-08-21 08:37:00,71.1,67.0,29.23,SE,124,0.0,0.0,87,0.00,,SKC,0.00,VWS V14.00,2013-08-21 12:37:00,
2013-08-21 08:42:00,71.2,67.5,29.23,SE,124,0.0,0.0,88,0.00,,SKC,0.00,VWS V14.00,2013-08-21 12:42:00,
2013-08-21 08:47:00,71.4,67.7,29.23,SE,124,0.0,0.0,88,0.00,,SKC,0.00,VWS V14.00,2013-08-21 12:47:00,
2013-08-21 08:52:00,71.6,67.5,29.26,SE,124,0.0,0.0,87,0.00,,SKC,0.00,VWS V14.00,2013-08-21 12:52:00,
2013-08-21 08:57:00,71.8,67.7,29.26,NE,53,0.0,0.0,87,0.00,,SKC,0.00,VWS V14.00,2013-08-21 12:57:00,
2013-08-21 09:02:00,72.0,68.2,29.26,NE,54,0.0,0.0,88,0.00,,SKC,0.00,VWS V14.00,2013-08-21 13:02:00,
2013-08-21 09:07:00,72.1,68.4,29.26,NE,53,0.0,0.0,88,0.00,,SKC,0.00,VWS V14.00,2013-08-21 13:07:00,
2013-08-21 09:12:00,72.3,68.6,29.26,NE,53,0.0,0.0,88,0.00,,SKC,0.00,VWS V14.00,2013-08-21 13:12:00,
2013-08-21 09:17:00,72.7,68.9,29.26,NE,54,0.0,0.0,88,0.00,,SKC,0.00,VWS V14.00,2013-08-21 13:17:00,
2013-08-21 09:22:00,72.7,68.9,29.26,NE,53,0.0,0.0,88,0.00,,SKC,0.00,VWS V14.00,2013-08-21 13:22:00,
2013-08-21 09:28:00,72.9,69.1,29.26,NE,54,0.0,0.0,88,0.00,,SKC,0.00,VWS V14.00,2013-08-21 13:28:00,
2013-08-21 09:33:00,73.0,69.3,29.26,NE,54,0.0,0.0,88,0.00,,SKC,0.00,VWS V14.00,2013-08-21 13:33:00,
2013-08-21 09:38:00,73.2,69.5,29.26,NE,53,0.0,0.0,88,0.00,,SKC,0.00,VWS V14.00,2013-08-21 13:38:00,
2013-08-21 09:43:00,73.4,69.3,29.26,NE,54,0.0,0.0,87,0.00,,SKC,0.00,VWS V14.00,2013-08-21 13:43:00,
2013-08-21 09:48:00,73.6,69.5,29.26,NE,53,0.0,0.0,87,0.00,,SKC,0.00,VWS V14.00,2013-08-21 13:48:00,
2013-08-21 09:53:00,73.8,69.7,29.26,NE,54,0.0,0.0,87,0.00,,SKC,0.00,VWS V14.00,2013-08-21 13:53:00,
2013-08-21 09:58:00,74.1,70.0,29.26,NE,53,0.0,0.0,87,0.00,,SKC,0.00,VWS V14.00,2013-08-21 13:58:00,
2013-08-21 10:03:00,74.3,70.2,29.26,NE,54,0.0,0.0,87,0.00,,SKC,0.00,VWS V14.00,2013-08-21 14:03:00,
2013-08-21 10:08:00,74.7,70.5,29.26,NE,53,0.0,0.0,87,0.00,,SKC,0.00,VWS V14.00,2013-08-21 14:08:00,
2013-08-21 10:13:00,75.0,70.9,29.26,NE,53,0.0,0.0,87,0.00,,SKC,0.00,VWS V14.00,2013-08-21 14:13:00,
2013-08-21 10:18:00,75.2,70.7,29.26,NE,54,0.0,0.0,86,0.00,,SKC,0.00,VWS V14.00,2013-08-21 14:18:00,
2013-08-21 10:23:00,75.4,70.9,29.26,NE,53,0.0,0.0,86,0.00,,SKC,0.00,VWS V14.00,2013-08-21 14:23:00,
2013-08-21 10:28:00,75.7,71.3,29.26,North,357,0.0,0.0,86,0.00,,SKC,0.00,VWS V14.00,2013-08-21 14:28:00,
2013-08-21 10:33:00,75.7,70.9,29.26,NNE,26,0.0,0.0,85,0.00,,SKC,0.00,VWS V14.00,2013-08-21 14:33:00,
2013-08-21 10:38:00,75.9,71.1,29.26,NNE,21,3.2,3.2,85,0.00,,SKC,0.00,VWS V14.00,2013-08-21 14:38:00,
2013-08-21 10:43:00,75.9,70.7,29.26,NNE,33,0.0,2.7,84,0.00,,SKC,0.00,VWS V14.00,2013-08-21 14:43:00,
2013-08-21 10:48:00,76.3,71.1,29.26,NNE,33,0.0,2.7,84,0.00,,SKC,0.00,VWS V14.00,2013-08-21 14:48:00,
2013-08-21 10:53:00,76.6,71.4,29.26,NNE,33,0.0,0.0,84,0.00,,SKC,0.00,VWS V14.00,2013-08-21 14:53:00,
2013-08-21 10:58:00,76.8,71.3,29.26,North,2,0.0,0.0,83,0.00,,SKC,0.00,VWS V14.00,2013-08-21 14:58:00,
2013-08-21 11:03:00,77.2,71.3,29.26,North,8,0.0,0.0,82,0.00,,SKC,0.00,VWS V14.00,2013-08-21 15:03:00,
2013-08-21 11:08:00,77.9,72.0,29.26,NNE,29,0.0,0.0,82,0.00,,SKC,0.00,VWS V14.00,2013-08-21 15:08:00,
2013-08-21 11:13:00,78.4,72.1,29.26,NNE,32,3.8,3.8,81,0.00,,SKC,0.00,VWS V14.00,2013-08-21 15:13:00,
2013-08-21 11:18:00,78.4,71.0,29.26,NE,35,0.0,5.8,78,0.00,,SKC,0.00,VWS V14.00,2013-08-21 15:18:00,
2013-08-21 11:23:00,78.4,71.4,29.26,NNE,17,0.0,2.7,79,0.00,,SKC,0.00,VWS V14.00,2013-08-21 15:23:00,
2013-08-21 11:28:00,78.6,71.6,29.26,NNE,18,0.0,2.7,79,0.00,,SKC,0.00,VWS V14.00,2013-08-21 15:28:00,
2013-08-21 11:33:00,79.0,71.9,29.26,WSW,255,0.0,2.7,79,0.00,,SKC,0.00,VWS V14.00,2013-08-21 15:33:00,
2013-08-21 11:38:00,78.8,71.0,29.26,NNE,27,0.0,4.0,77,0.00,,SKC,0.00,VWS V14.00,2013-08-21 15:38:00,
2013-08-21 11:43:00,78.8,71.0,29.26,NE,38,4.8,4.8,77,0.00,,SKC,0.00,VWS V14.00,2013-08-21 15:43:00,
2013-08-21 11:48:00,79.2,70.6,29.26,NE,40,4.8,5.4,75,0.00,,SKC,0.00,VWS V14.00,2013-08-21 15:48:00,
2013-08-21 11:53:00,79.7,70.3,29.26,NE,39,3.2,4.9,73,0.00,,SKC,0.00,VWS V14.00,2013-08-21 15:53:00,
2013-08-21 11:58:00,80.2,71.6,29.26,ENE,57,0.0,4.9,75,0.00,,SKC,0.00,VWS V14.00,2013-08-21 15:58:00,
2013-08-21 12:03:00,81.0,70.3,29.26,NNE,29,4.8,4.8,70,0.00,,SKC,0.00,VWS V14.00,2013-08-21 16:03:00,
2013-08-21 12:08:00,80.8,70.5,29.26,NNE,16,0.0,4.5,71,0.00,,SKC,0.00,VWS V14.00,2013-08-21 16:08:00,
2013-08-21 12:13:00,81.0,71.5,29.26,SW,220,0.0,0.0,73,0.00,,SKC,0.00,VWS V14.00,2013-08-21 16:13:00,
2013-08-21 12:18:00,81.0,71.1,29.26,NNE,17,0.0,2.7,72,0.00,,SKC,0.00,VWS V14.00,2013-08-21 16:18:00,
2013-08-21 12:23:00,80.8,70.1,29.26,SSE,164,0.0,2.7,70,0.00,,SKC,0.00,VWS V14.00,2013-08-21 16:23:00,
2013-08-21 12:28:00,81.0,70.7,29.26,South,186,0.0,2.7,71,0.00,,SKC,0.00,VWS V14.00,2013-08-21 16:28:00,
2013-08-21 12:33:00,81.0,70.7,29.26,SSW,211,0.0,3.1,71,0.00,,SKC,0.00,VWS V14.00,2013-08-21 16:33:00,
2013-08-21 12:38:00,81.0,70.7,29.26,North,1,0.0,3.1,71,0.00,,SKC,0.00,VWS V14.00,2013-08-21 16:38:00,
2013-08-21 12:43:00,81.0,70.3,29.26,North,0,0.0,0.0,70,0.00,,SKC,0.00,VWS V14.00,2013-08-21 16:43:00,
2013-08-21 12:48:00,81.1,70.4,29.26,SW,215,0.0,4.0,70,0.00,,SKC,0.00,VWS V14.00,2013-08-21 16:48:00,
2013-08-21 12:53:00,81.3,71.0,29.23,SW,214,0.0,0.0,71,0.00,,SKC,0.00,VWS V14.00,2013-08-21 16:53:00,
2013-08-21 12:58:00,81.5,70.8,29.23,SSW,211,0.0,0.0,70,0.00,,SKC,0.00,VWS V14.00,2013-08-21 16:58:00,
2013-08-21 13:03:00,81.5,70.8,29.23,SSW,212,0.0,0.0,70,0.00,,SKC,0.00,VWS V14.00,2013-08-21 17:03:00,
2013-08-21 13:08:00,81.3,70.6,29.23,SSW,212,0.0,0.0,70,0.00,,SKC,0.00,VWS V14.00,2013-08-21 17:08:00,
2013-08-21 13:13:00,81.0,70.3,29.23,SSW,212,0.0,0.0,70,0.00,,SKC,0.00,VWS V14.00,2013-08-21 17:13:00,
2013-08-21 13:18:00,80.6,69.9,29.23,SSW,212,0.0,0.0,70,0.00,,SKC,0.00,VWS V14.00,2013-08-21 17:18:00,
2013-08-21 13:23:00,80.1,69.4,29.23,SSW,212,0.0,0.0,70,0.00,,SKC,0.00,VWS V14.00,2013-08-21 17:23:00,
2013-08-21 13:28:00,79.7,69.1,29.23,SSW,212,0.0,0.0,70,0.00,,SKC,0.00,VWS V14.00,2013-08-21 17:28:00,
2013-08-21 13:33:00,79.3,68.7,29.23,SSW,193,0.0,0.0,70,0.00,,SKC,0.00,VWS V14.00,2013-08-21 17:33:00,
2013-08-21 13:38:00,79.0,68.4,29.23,SSW,192,0.0,0.0,70,0.00,,SKC,0.00,VWS V14.00,2013-08-21 17:38:00,
2013-08-21 13:43:00,78.8,68.6,29.23,SSW,192,0.0,0.0,71,0.00,,SKC,0.00,VWS V14.00,2013-08-21 17:43:00,
2013-08-21 13:48:00,78.6,68.4,29.23,South,177,0.0,0.0,71,0.00,,SKC,0.00,VWS V14.00,2013-08-21 17:48:00,
2013-08-21 13:53:00,78.4,68.7,29.26,South,177,0.0,0.0,72,0.00,,SKC,0.00,VWS V14.00,2013-08-21 17:53:00,
2013-08-21 13:58:00,78.6,68.8,29.26,WNW,300,0.0,0.0,72,0.00,,SKC,0.00,VWS V14.00,2013-08-21 17:58:00,
2013-08-21 14:03:00,78.8,69.4,29.26,WNW,300,0.0,0.0,73,0.00,,SKC,0.00,VWS V14.00,2013-08-21 18:03:00,
2013-08-21 14:08:00,78.8,69.4,29.23,SW,215,0.0,0.0,73,0.00,,SKC,0.00,VWS V14.00,2013-08-21 18:08:00,
2013-08-21 14:13:00,78.8,69.4,29.23,South,186,0.0,0.0,73,0.00,,SKC,0.00,VWS V14.00,2013-08-21 18:13:00,
2013-08-21 14:18:00,78.6,69.7,29.23,SW,221,0.0,4.0,74,0.00,,SKC,0.00,VWS V14.00,2013-08-21 18:18:00,
2013-08-21 14:23:00,78.4,69.5,29.23,South,177,0.0,3.1,74,0.00,,SKC,0.00,VWS V14.00,2013-08-21 18:23:00,
2013-08-21 14:28:00,78.3,69.3,29.23,North,6,0.0,3.1,74,0.00,,SKC,0.00,VWS V14.00,2013-08-21 18:28:00,
2013-08-21 14:33:00,77.7,68.4,29.23,North,6,0.0,0.0,73,0.00,,SKC,0.00,VWS V14.00,2013-08-21 18:33:00,
2013-08-21 14:38:00,77.5,68.2,29.23,North,6,0.0,0.0,73,0.00,,SKC,0.00,VWS V14.00,2013-08-21 18:38:00,
2013-08-21 14:43:00,77.0,67.7,29.23,North,6,0.0,0.0,73,0.00,,SKC,0.00,VWS V14.00,2013-08-21 18:43:00,
2013-08-21 14:48:00,77.0,68.1,29.23,North,6,0.0,0.0,74,0.00,,SKC,0.00,VWS V14.00,2013-08-21 18:48:00,
2013-08-21 14:53:00,77.2,68.3,29.23,North,6,0.0,0.0,74,0.00,,SKC,0.00,VWS V14.00,2013-08-21 18:53:00,
2013-08-21 14:58:00,77.5,69.0,29.23,North,6,0.0,0.0,75,0.00,,SKC,0.00,VWS V14.00,2013-08-21 18:58:00,
2013-08-21 15:03:00,77.7,69.2,29.23,North,6,0.0,0.0,75,0.00,,SKC,0.00,VWS V14.00,2013-08-21 19:03:00,
2013-08-21 15:08:00,77.5,69.0,29.23,North,6,0.0,0.0,75,0.00,,SKC,0.00,VWS V14.00,2013-08-21 19:08:00,
2013-08-21 15:13:00,77.7,69.2,29.23,North,6,0.0,0.0,75,0.00,,SKC,0.00,VWS V14.00,2013-08-21 19:13:00,
2013-08-21 15:18:00,77.7,69.2,29.23,North,6,0.0,0.0,75,0.00,,SKC,0.00,VWS V14.00,2013-08-21 19:18:00,
2013-08-21 15:24:00,78.1,69.5,29.23,SSE,156,0.0,0.0,75,0.00,,SKC,0.00,VWS V14.00,2013-08-21 19:24:00,
2013-08-21 15:29:00,78.1,69.5,29.23,SSE,156,0.0,0.0,75,0.00,,SKC,0.00,VWS V14.00,2013-08-21 19:29:00,
2013-08-21 15:34:00,78.1,69.5,29.23,SSE,156,0.0,0.0,75,0.00,,SKC,0.00,VWS V14.00,2013-08-21 19:34:00,
2013-08-21 15:39:00,78.3,69.7,29.23,SSE,156,0.0,0.0,75,0.00,,SKC,0.00,VWS V14.00,2013-08-21 19:39:00,
2013-08-21 15:44:00,78.3,69.7,29.23,SSE,156,0.0,0.0,75,0.00,,SKC,0.00,VWS V14.00,2013-08-21 19:44:00,
2013-08-21 15:49:00,78.1,69.5,29.23,SSE,156,0.0,0.0,75,0.00,,SKC,0.00,VWS V14.00,2013-08-21 19:49:00,
2013-08-21 15:54:00,78.1,69.5,29.21,SSE,156,0.0,0.0,75,0.00,,SKC,0.00,VWS V14.00,2013-08-21 19:54:00,
2013-08-21 15:59:00,78.1,69.5,29.21,SSE,156,0.0,0.0,75,0.00,,SKC,0.00,VWS V14.00,2013-08-21 19:59:00,
2013-08-21 16:04:00,78.1,69.5,29.21,SSE,156,0.0,0.0,75,0.00,,SKC,0.00,VWS V14.00,2013-08-21 20:04:00,
2013-08-21 16:09:00,78.1,69.5,29.23,SSE,156,0.0,0.0,75,0.00,,SKC,0.00,VWS V14.00,2013-08-21 20:09:00,
2013-08-21 16:14:00,77.9,69.3,29.23,SE,134,0.0,0.0,75,0.00,,SKC,0.00,VWS V14.00,2013-08-21 20:14:00,
2013-08-21 16:19:00,77.9,69.3,29.23,SE,134,0.0,0.0,75,0.00,,SKC,0.00,VWS V14.00,2013-08-21 20:19:00,
2013-08-21 16:24:00,77.7,69.2,29.23,SE,134,0.0,0.0,75,0.00,,SKC,0.00,VWS V14.00,2013-08-21 20:24:00,
2013-08-21 16:29:00,77.4,68.8,29.23,SE,134,0.0,0.0,75,0.00,,SKC,0.00,VWS V14.00,2013-08-21 20:29:00,
2013-08-21 16:34:00,77.2,68.7,29.23,West,264,0.0,3.1,75,0.00,,SKC,0.00,VWS V14.00,2013-08-21 20:34:00,
2013-08-21 16:39:00,77.2,68.7,29.21,SW,216,0.0,3.1,75,0.00,,SKC,0.00,VWS V14.00,2013-08-21 20:39:00,
2013-08-21 16:44:00,77.2,68.7,29.21,SW,216,0.0,0.0,75,0.00,,SKC,0.00,VWS V14.00,2013-08-21 20:44:00,
2013-08-21 16:49:00,77.4,69.2,29.21,SW,216,0.0,0.0,76,0.00,,SKC,0.00,VWS V14.00,2013-08-21 20:49:00,
2013-08-21 16:54:00,77.9,69.7,29.21,SW,217,0.0,0.0,76,0.00,,SKC,0.00,VWS V14.00,2013-08-21 20:54:00,
2013-08-21 16:59:00,78.6,70.4,29.21,NNE,30,3.8,3.8,76,0.00,,SKC,0.00,VWS V14.00,2013-08-21 20:59:00,
2013-08-21 17:04:00,78.6,70.0,29.21,NE,43,0.0,0.0,75,0.00,,SKC,0.00,VWS V14.00,2013-08-21 21:04:00,
2013-08-21 17:09:00,78.4,69.9,29.21,NE,56,0.0,0.0,75,0.00,,SKC,0.00,VWS V14.00,2013-08-21 21:09:00,
2013-08-21 17:14:00,78.4,69.5,29.21,NE,51,0.0,0.0,74,0.00,,SKC,0.00,VWS V14.00,2013-08-21 21:14:00,
2013-08-21 17:19:00,78.3,69.3,29.21,NE,50,0.0,0.0,74,0.00,,SKC,0.00,VWS V14.00,2013-08-21 21:19:00,
2013-08-21 17:24:00,78.1,69.1,29.21,NE,38,0.0,3.6,74,0.00,,SKC,0.00,VWS V14.00,2013-08-21 21:24:00,
2013-08-21 17:29:00,77.9,68.6,29.21,NE,38,0.0,3.6,73,0.00,,SKC,0.00,VWS V14.00,2013-08-21 21:29:00,
2013-08-21 17:34:00,77.7,68.8,29.21,NE,38,0.0,0.0,74,0.00,,SKC,0.00,VWS V14.00,2013-08-21 21:34:00,
2013-08-21 17:39:00,77.9,68.9,29.21,NE,38,0.0,0.0,74,0.00,,SKC,0.00,VWS V14.00,2013-08-21 21:39:00,
2013-08-21 17:44:00,78.1,69.1,29.21,NE,38,0.0,0.0,74,0.00,,SKC,0.00,VWS V14.00,2013-08-21 21:44:00,
2013-08-21 17:49:00,78.1,69.1,29.21,NE,38,0.0,0.0,74,0.00,,SKC,0.00,VWS V14.00,2013-08-21 21:49:00,
2013-08-21 17:54:00,78.3,69.3,29.18,East,99,0.0,0.0,74,0.00,,SKC,0.00,VWS V14.00,2013-08-21 21:54:00,
2013-08-21 17:59:00,78.1,69.1,29.18,East,99,0.0,0.0,74,0.00,,SKC,0.00,VWS V14.00,2013-08-21 21:59:00,
2013-08-21 18:04:00,78.3,69.3,29.18,East,99,0.0,0.0,74,0.00,,SKC,0.00,VWS V14.00,2013-08-21 22:04:00,
2013-08-21 18:09:00,78.3,69.3,29.18,East,99,0.0,0.0,74,0.00,,SKC,0.00,VWS V14.00,2013-08-21 22:09:00,
2013-08-21 18:14:00,78.3,69.3,29.18,East,99,0.0,0.0,74,0.00,,SKC,0.00,VWS V14.00,2013-08-21 22:14:00,
2013-08-21 18:19:00,78.3,69.3,29.18,East,99,0.0,0.0,74,0.00,,SKC,0.00,VWS V14.00,2013-08-21 22:19:00,
2013-08-21 18:24:00,78.3,69.3,29.18,East,99,0.0,0.0,74,0.00,,SKC,0.00,VWS V14.00,2013-08-21 22:24:00,
2013-08-21 18:29:00,78.3,69.3,29.18,East,99,0.0,0.0,74,0.00,,SKC,0.00,VWS V14.00,2013-08-21 22:29:00,
2013-08-21 18:34:00,78.3,69.3,29.18,East,99,0.0,0.0,74,0.00,,SKC,0.00,VWS V14.00,2013-08-21 22:34:00,
2013-08-21 18:39:00,78.1,69.1,29.18,East,99,0.0,0.0,74,0.00,,SKC,0.00,VWS V14.00,2013-08-21 22:39:00,
2013-08-21 18:44:00,78.1,69.1,29.18,East,99,0.0,0.0,74,0.00,,SKC,0.00,VWS V14.00,2013-08-21 22:44:00,
2013-08-21 18:49:00,78.1,69.1,29.18,East,99,0.0,0.0,74,0.00,,SKC,0.00,VWS V14.00,2013-08-21 22:49:00,
2013-08-21 18:54:00,78.1,69.1,29.18,East,99,0.0,0.0,74,0.00,,SKC,0.00,VWS V14.00,2013-08-21 22:54:00,
2013-08-21 18:59:00,77.9,68.9,29.18,SE,130,0.0,0.0,74,0.00,,SKC,0.00,VWS V14.00,2013-08-21 22:59:00,
2013-08-21 19:04:00,77.9,68.9,29.18,SE,130,0.0,0.0,74,0.00,,SKC,0.00,VWS V14.00,2013-08-21 23:04:00,
2013-08-21 19:09:00,77.7,68.8,29.18,SE,130,0.0,0.0,74,0.00,,SKC,0.00,VWS V14.00,2013-08-21 23:09:00,
2013-08-21 19:14:00,77.5,68.6,29.18,SE,130,0.0,0.0,74,0.00,,SKC,0.00,VWS V14.00,2013-08-21 23:14:00,
2013-08-21 19:19:00,77.4,68.4,29.18,SE,130,0.0,0.0,74,0.00,,SKC,0.00,VWS V14.00,2013-08-21 23:19:00,
2013-08-21 19:24:00,77.2,68.3,29.18,SE,130,0.0,0.0,74,0.00,,SKC,0.00,VWS V14.00,2013-08-21 23:24:00,
2013-08-21 19:29:00,77.0,68.1,29.18,SE,130,0.0,0.0,74,0.00,,SKC,0.00,VWS V14.00,2013-08-21 23:29:00,
2013-08-21 19:34:00,76.8,67.9,29.18,SE,130,0.0,0.0,74,0.00,,SKC,0.00,VWS V14.00,2013-08-21 23:34:00,
2013-08-21 19:39:00,76.6,67.7,29.18,SE,130,0.0,0.0,74,0.00,,SKC,0.00,VWS V14.00,2013-08-21 23:39:00,
2013-08-21 19:44:00,76.5,67.6,29.18,SE,130,0.0,0.0,74,0.00,,SKC,0.00,VWS V14.00,2013-08-21 23:44:00,
2013-08-21 19:49:00,76.3,67.4,29.18,SE,130,0.0,0.0,74,0.00,,SKC,0.00,VWS V14.00,2013-08-21 23:49:00,
2013-08-21 19:54:00,76.1,67.2,29.18,SE,130,0.0,0.0,74,0.00,,SKC,0.00,VWS V14.00,2013-08-21 23:54:00,
2013-08-21 19:59:00,75.7,66.9,29.18,SE,130,0.0,0.0,74,0.00,,SKC,0.00,VWS V14.00,2013-08-21 23:59:00,
2013-08-21 20:04:00,75.6,66.7,29.18,SE,130,0.0,0.0,74,0.00,,SKC,0.00,VWS V14.00,2013-08-22 00:04:00,
2013-08-21 20:09:00,75.4,66.9,29.18,SE,130,0.0,0.0,75,0.00,,SKC,0.00,VWS V14.00,2013-08-22 00:09:00,
2013-08-21 20:14:00,75.2,66.7,29.18,SE,130,0.0,0.0,75,0.00,,SKC,0.00,VWS V14.00,2013-08-22 00:14:00,
2013-08-21 20:19:00,75.0,66.6,29.18,SE,130,0.0,0.0,75,0.00,,SKC,0.00,VWS V14.00,2013-08-22 00:19:00,
2013-08-21 20:24:00,74.7,66.2,29.18,SE,130,0.0,0.0,75,0.00,,SKC,0.00,VWS V14.00,2013-08-22 00:24:00,
2013-08-21 20:29:00,74.5,66.0,29.18,SE,130,0.0,0.0,75,0.00,,SKC,0.00,VWS V14.00,2013-08-22 00:29:00,
2013-08-21 20:34:00,74.3,65.9,29.18,SE,130,0.0,0.0,75,0.00,,SKC,0.00,VWS V14.00,2013-08-22 00:34:00,
2013-08-21 20:39:00,74.1,66.1,29.21,SE,130,0.0,0.0,76,0.00,,SKC,0.00,VWS V14.00,2013-08-22 00:39:00,
2013-08-21 20:44:00,73.9,65.9,29.21,SE,130,0.0,0.0,76,0.00,,SKC,0.00,VWS V14.00,2013-08-22 00:44:00,
2013-08-21 20:49:00,73.8,65.7,29.21,SE,130,0.0,0.0,76,0.00,,SKC,0.00,VWS V14.00,2013-08-22 00:49:00,
2013-08-21 20:54:00,73.4,65.4,29.21,SE,130,0.0,0.0,76,0.00,,SKC,0.00,VWS V14.00,2013-08-22 00:54:00,
2013-08-21 20:59:00,73.2,65.6,29.21,SE,130,0.0,0.0,77,0.00,,SKC,0.00,VWS V14.00,2013-08-22 00:59:00,
2013-08-21 21:04:00,73.2,65.6,29.21,SE,130,0.0,0.0,77,0.00,,SKC,0.00,VWS V14.00,2013-08-22 01:04:00,
2013-08-21 21:09:00,73.2,65.6,29.21,SE,130,0.0,0.0,77,0.00,,SKC,0.00,VWS V14.00,2013-08-22 01:09:00,
2013-08-21 21:14:00,73.2,65.6,29.21,SE,130,0.0,0.0,77,0.00,,SKC,0.00,VWS V14.00,2013-08-22 01:14:00,
2013-08-21 21:19:00,73.0,65.4,29.21,SE,130,0.0,0.0,77,0.00,,SKC,0.00,VWS V14.00,2013-08-22 01:19:00,
2013-08-21 21:24:00,73.0,65.4,29.21,SE,130,0.0,0.0,77,0.00,,SKC,0.00,VWS V14.00,2013-08-22 01:24:00,
2013-08-21 21:30:00,72.9,65.6,29.21,SE,130,0.0,0.0,78,0.00,,SKC,0.00,VWS V14.00,2013-08-22 01:30:00,
2013-08-21 21:35:00,72.7,65.4,29.21,SE,130,0.0,0.0,78,0.00,,SKC,0.00,VWS V14.00,2013-08-22 01:35:00,
2013-08-21 21:40:00,72.7,65.4,29.21,SE,130,0.0,0.0,78,0.00,,SKC,0.00,VWS V14.00,2013-08-22 01:40:00,
2013-08-21 21:45:00,72.5,65.3,29.21,SE,130,0.0,0.0,78,0.00,,SKC,0.00,VWS V14.00,2013-08-22 01:45:00,
2013-08-21 21:50:00,72.3,65.1,29.21,SE,130,0.0,0.0,78,0.00,,SKC,0.00,VWS V14.00,2013-08-22 01:50:00,
2013-08-21 21:55:00,72.3,65.1,29.21,SE,130,0.0,0.0,78,0.00,,SKC,0.00,VWS V14.00,2013-08-22 01:55:00,
2013-08-21 22:00:00,72.1,64.9,29.21,SE,130,0.0,0.0,78,0.00,,SKC,0.00,VWS V14.00,2013-08-22 02:00:00,
2013-08-21 22:05:00,72.1,64.9,29.21,SE,130,0.0,0.0,78,0.00,,SKC,0.00,VWS V14.00,2013-08-22 02:05:00,
2013-08-21 22:10:00,72.0,65.1,29.21,SE,130,0.0,0.0,79,0.00,,SKC,0.00,VWS V14.00,2013-08-22 02:10:00,
2013-08-21 22:15:00,72.0,65.1,29.21,SE,130,0.0,0.0,79,0.00,,SKC,0.00,VWS V14.00,2013-08-22 02:15:00,
2013-08-21 22:20:00,72.0,65.1,29.21,SE,130,0.0,0.0,79,0.00,,SKC,0.00,VWS V14.00,2013-08-22 02:20:00,
2013-08-21 22:25:00,72.0,65.1,29.21,SE,130,0.0,0.0,79,0.00,,SKC,0.00,VWS V14.00,2013-08-22 02:25:00,
2013-08-21 22:30:00,71.8,64.9,29.21,SE,130,0.0,0.0,79,0.00,,SKC,0.00,VWS V14.00,2013-08-22 02:30:00,
2013-08-21 22:35:00,71.8,64.9,29.21,SE,130,0.0,0.0,79,0.00,,SKC,0.00,VWS V14.00,2013-08-22 02:35:00,
2013-08-21 22:40:00,71.6,64.8,29.21,SE,130,0.0,0.0,79,0.00,,SKC,0.00,VWS V14.00,2013-08-22 02:40:00,
2013-08-21 22:45:00,71.4,64.6,29.21,SE,130,0.0,0.0,79,0.00,,SKC,0.00,VWS V14.00,2013-08-22 02:45:00,
2013-08-21 22:50:00,71.4,64.9,29.21,SE,130,0.0,0.0,80,0.00,,SKC,0.00,VWS V14.00,2013-08-22 02:50:00,
2013-08-21 22:55:00,71.2,64.8,29.21,SE,130,0.0,0.0,80,0.00,,SKC,0.00,VWS V14.00,2013-08-22 02:55:00,
2013-08-21 23:00:00,71.1,64.6,29.21,SE,130,0.0,0.0,80,0.00,,SKC,0.00,VWS V14.00,2013-08-22 03:00:00,
2013-08-21 23:05:00,71.1,64.6,29.21,SE,130,0.0,0.0,80,0.00,,SKC,0.00,VWS V14.00,2013-08-22 03:05:00,
2013-08-21 23:10:00,70.9,64.4,29.21,SE,130,0.0,0.0,80,0.00,,SKC,0.00,VWS V14.00,2013-08-22 03:10:00,
2013-08-21 23:15:00,70.9,64.4,29.21,SE,130,0.0,0.0,80,0.00,,SKC,0.00,VWS V14.00,2013-08-22 03:15:00,
2013-08-21 23:20:00,70.9,64.4,29.21,SE,130,0.0,0.0,80,0.00,,SKC,0.00,VWS V14.00,2013-08-22 03:20:00,
2013-08-21 23:25:00,70.9,64.4,29.21,SE,130,0.0,0.0,80,0.00,,SKC,0.00,VWS V14.00,2013-08-22 03:25:00,
2013-08-21 23:30:00,70.7,64.2,29.21,SE,130,0.0,0.0,80,0.00,,SKC,0.00,VWS V14.00,2013-08-22 03:30:00,
2013-08-21 23:35:00,70.7,64.6,29.21,SE,130,0.0,0.0,81,0.00,,SKC,0.00,VWS V14.00,2013-08-22 03:35:00,
2013-08-21 23:40:00,70.5,64.4,29.21,SE,130,0.0,0.0,81,0.00,,SKC,0.00,VWS V14.00,2013-08-22 03:40:00,
2013-08-21 23:45:00,70.5,64.4,29.21,SE,130,0.0,0.0,81,0.00,,SKC,0.00,VWS V14.00,2013-08-22 03:45:00,
2013-08-21 23:50:00,70.3,64.2,29.21,SE,130,0.0,0.0,81,0.00,,SKC,0.00,VWS V14.00,2013-08-22 03:50:00,
2013-08-21 23:55:00,70.3,64.2,29.21,SE,130,0.0,0.0,81,0.00,,SKC,0.00,VWS V14.00,2013-08-22 03:55:00,